createdAt,value
2022-08-05T00:00:46.462Z,100592.63
2022-08-05T00:03:15.614Z,100590.41
2022-08-05T00:06:04.698Z,100588.22
2022-08-05T00:08:35.284Z,100587.06
2022-08-05T00:11:00.569Z,100583.13
2022-08-05T00:13:38.008Z,100571.50
2022-08-05T00:16:01.720Z,100573.38
2022-08-05T00:18:24.769Z,100575.88
2022-08-05T00:20:49.369Z,100573.69
2022-08-05T00:23:12.968Z,100581.78
2022-08-05T00:25:46.148Z,100573.03
2022-08-05T00:28:09.517Z,100574.91
2022-08-05T00:30:35.802Z,100567.63
2022-08-05T00:32:59.183Z,100573.50
2022-08-05T00:35:22.360Z,100567.88
2022-08-05T00:37:57.723Z,100566.34
2022-08-05T00:40:28.230Z,100561.78
2022-08-05T00:42:51.736Z,100569.38
2022-08-05T00:45:14.767Z,100567.69
2022-08-05T00:47:56.886Z,100567.19
2022-08-05T00:50:20.886Z,100563.91
2022-08-05T00:52:45.444Z,100562.03
2022-08-05T00:55:12.256Z,100557.81
2022-08-05T00:57:38.249Z,100566.16
2022-08-05T01:00:20.029Z,100561.06
2022-08-05T01:02:45.121Z,100560.88
2022-08-05T01:05:10.169Z,100554.16
2022-08-05T01:07:33.366Z,100553.31
2022-08-05T01:09:56.476Z,100554.84
2022-08-05T01:12:21.537Z,100554.47
2022-08-05T01:14:46.364Z,100550.47
2022-08-05T01:17:10.248Z,100550.28
2022-08-05T01:19:56.853Z,100555.34
2022-08-05T01:22:31.841Z,100558.31
2022-08-05T01:25:02.909Z,100550.94
2022-08-05T01:27:32.918Z,100553.28
2022-08-05T01:29:57.824Z,100547.00
2022-08-05T01:32:22.025Z,100542.47
2022-08-05T01:34:47.406Z,100549.72
2022-08-05T01:37:24.816Z,100547.81
2022-08-05T01:39:48.489Z,100545.84
2022-08-05T01:42:12.326Z,100539.09
2022-08-05T01:44:36.806Z,100536.91
2022-08-05T01:47:01.442Z,100541.91
2022-08-05T01:49:42.716Z,100533.19
2022-08-05T01:52:17.558Z,100539.34
2022-08-05T01:54:46.030Z,100535.28
2022-08-05T01:58:12.870Z,100538.88
2022-08-05T01:59:52.856Z,100541.91
2022-08-05T02:02:17.893Z,100532.00
2022-08-05T02:04:41.605Z,100534.22
2022-08-05T02:07:09.298Z,100543.13
2022-08-05T02:09:32.938Z,100534.38
2022-08-05T02:12:03.015Z,100534.38
2022-08-05T02:14:27.818Z,100540.78
2022-08-05T02:16:53.258Z,100534.13
2022-08-05T02:19:20.411Z,100535.72
2022-08-05T02:21:49.271Z,100539.97
2022-08-05T02:24:12.598Z,100539.41
2022-08-05T02:26:41.266Z,100539.25
2022-08-05T02:29:21.703Z,100536.72
2022-08-05T02:31:47.543Z,100537.56
2022-08-05T02:34:11.842Z,100544.84
2022-08-05T02:36:36.783Z,100541.91
2022-08-05T02:39:01.315Z,100535.94
2022-08-05T02:41:28.294Z,100533.47
2022-08-05T02:44:02.837Z,100541.53
2022-08-05T02:46:29.911Z,100539.50
2022-08-05T02:48:53.427Z,100535.56
2022-08-05T02:51:16.998Z,100541.63
2022-08-05T02:53:41.387Z,100540.31
2022-08-05T02:56:04.438Z,100543.53
2022-08-05T02:58:30.462Z,100540.81
2022-08-05T03:00:54.275Z,100542.34
2022-08-05T03:03:17.715Z,100545.88
2022-08-05T03:06:56.097Z,100546.72
2022-08-05T03:08:29.585Z,100537.41
2022-08-05T03:11:41.125Z,100548.22
2022-08-05T03:13:51.749Z,100538.69
2022-08-05T03:16:20.476Z,100546.28
2022-08-05T03:18:43.518Z,100542.41
2022-08-05T03:21:09.397Z,100553.66
2022-08-05T03:23:32.380Z,100557.88
2022-08-05T03:26:04.497Z,100552.31
2022-08-05T03:28:42.143Z,100554.19
2022-08-05T03:31:05.239Z,100551.44
2022-08-05T03:33:42.231Z,100558.53
2022-08-05T03:36:12.375Z,100558.50
2022-08-05T03:38:37.395Z,100555.69
2022-08-05T03:41:04.068Z,100563.91
2022-08-05T03:44:08.533Z,100556.72
2022-08-05T03:46:14.774Z,100559.53
2022-08-05T03:48:37.834Z,100555.31
2022-08-05T03:52:37.258Z,100560.22
2022-08-05T03:55:50.403Z,100562.31
2022-08-05T03:56:35.858Z,100564.78
2022-08-05T03:59:00.903Z,100563.63
2022-08-05T04:01:23.999Z,100556.84
2022-08-05T04:04:09.159Z,100556.19
2022-08-05T04:06:31.717Z,100564.47
2022-08-05T04:08:54.793Z,100568.34
2022-08-05T04:11:17.780Z,100561.41
2022-08-05T04:13:49.899Z,100568.88
2022-08-05T04:16:14.661Z,100565.97
2022-08-05T04:18:37.739Z,100564.81
2022-08-05T04:21:03.869Z,100555.00
2022-08-05T04:24:05.275Z,100554.81
2022-08-05T04:26:11.750Z,100552.28
2022-08-05T04:28:36.711Z,100542.16
2022-08-05T04:31:15.975Z,100553.81
2022-08-05T04:34:18.639Z,100556.19
2022-08-05T04:36:45.729Z,100553.16
2022-08-05T04:39:05.713Z,100551.13
2022-08-05T04:41:36.620Z,100556.50
2022-08-05T04:44:00.670Z,100552.44
2022-08-05T04:46:33.627Z,100556.50
2022-08-05T04:48:58.833Z,100554.47
2022-08-05T04:51:23.146Z,100557.22
2022-08-05T04:53:46.159Z,100562.44
2022-08-05T04:56:33.246Z,100558.22
2022-08-05T04:58:52.605Z,100548.44
2022-08-05T05:01:15.817Z,100555.50
2022-08-05T05:04:00.177Z,100548.91
2022-08-05T05:06:38.738Z,100548.75
2022-08-05T05:09:06.514Z,100553.66
2022-08-05T05:11:54.025Z,100547.59
2022-08-05T05:14:16.214Z,100554.31
2022-08-05T05:16:39.409Z,100556.16
2022-08-05T05:19:18.098Z,100548.09
2022-08-05T05:21:42.209Z,100550.31
2022-08-05T05:24:09.541Z,100550.63
2022-08-05T05:26:32.932Z,100552.13
2022-08-05T05:28:56.130Z,100542.34
2022-08-05T05:31:20.142Z,100541.34
2022-08-05T05:33:59.285Z,100545.38
2022-08-05T05:36:28.621Z,100539.13
2022-08-05T05:38:53.033Z,100544.03
2022-08-05T05:41:16.779Z,100540.16
2022-08-05T05:43:58.619Z,100544.03
2022-08-05T05:46:23.725Z,100535.75
2022-08-05T05:48:48.385Z,100542.16
2022-08-05T05:51:14.828Z,100540.63
2022-08-05T05:53:54.140Z,100542.31
2022-08-05T05:56:25.958Z,100539.94
2022-08-05T05:58:56.515Z,100539.75
2022-08-05T06:01:28.328Z,100543.09
2022-08-05T06:04:01.861Z,100537.19
2022-08-05T06:06:28.008Z,100537.00
2022-08-05T06:08:55.271Z,100538.22
2022-08-05T06:11:18.561Z,100538.03
2022-08-05T06:13:53.750Z,100545.66
2022-08-05T06:16:30.598Z,100543.25
2022-08-05T06:18:56.018Z,100542.13
2022-08-05T06:21:23.367Z,100543.78
2022-08-05T06:24:01.686Z,100538.88
2022-08-05T06:26:25.032Z,100535.81
2022-08-05T06:28:48.199Z,100527.03
2022-08-05T06:31:17.931Z,100539.03
2022-08-05T06:34:06.913Z,100532.72
2022-08-05T06:36:27.873Z,100541.03
2022-08-05T06:39:12.387Z,100544.91
2022-08-05T06:41:35.866Z,100543.75
2022-08-05T06:44:04.525Z,100545.09
2022-08-05T06:46:29.828Z,100555.56
2022-08-05T06:48:56.908Z,100547.94
2022-08-05T06:51:29.304Z,100550.31
2022-08-05T06:53:53.491Z,100558.91
2022-08-05T06:56:26.535Z,100550.97
2022-08-05T06:58:50.233Z,100566.16
2022-08-05T07:01:13.430Z,100571.59
2022-08-05T07:03:36.455Z,100567.03
2022-08-05T07:05:59.526Z,100574.13
2022-08-05T07:08:23.024Z,100575.66
2022-08-05T07:10:53.251Z,100582.41
2022-08-05T07:13:57.161Z,100574.28
2022-08-05T07:17:57.346Z,100576.44
2022-08-05T07:19:44.385Z,100582.00
2022-08-05T07:22:02.762Z,100583.03
2022-08-05T07:24:28.730Z,100589.13
2022-08-05T07:26:53.261Z,100579.63
2022-08-05T07:29:17.757Z,100577.63
2022-08-05T07:31:54.671Z,100578.66
2022-08-05T07:34:21.537Z,100582.00
2022-08-05T07:36:51.423Z,100573.88
2022-08-05T07:39:24.651Z,100577.06
2022-08-05T07:42:13.332Z,100574.00
2022-08-05T07:44:39.350Z,100579.78
2022-08-05T07:47:06.200Z,100571.97
2022-08-05T07:49:31.027Z,100569.28
2022-08-05T07:51:55.261Z,100572.16
2022-08-05T07:54:19.022Z,100568.44
2022-08-05T07:57:02.335Z,100574.50
2022-08-05T07:59:39.017Z,100572.47
2022-08-05T08:02:07.249Z,100566.69
2022-08-05T08:04:39.466Z,100569.41
2022-08-05T08:07:05.345Z,100565.66
2022-08-05T08:09:30.106Z,100572.75
2022-08-05T08:12:00.278Z,100559.22
2022-08-05T08:14:27.034Z,100575.31
2022-08-05T08:16:53.506Z,100568.22
2022-08-05T08:19:37.913Z,100550.75
2022-08-05T08:22:01.223Z,100558.72
2022-08-05T08:24:34.762Z,100557.00
2022-08-05T08:27:07.637Z,100556.28
2022-08-05T08:30:04.209Z,100555.31
2022-08-05T08:32:14.165Z,100551.75
2022-08-05T08:34:43.059Z,100551.03
2022-08-05T08:37:06.430Z,100547.69
2022-08-05T08:39:29.457Z,100547.13
2022-08-05T08:42:00.010Z,100544.91
2022-08-05T08:45:19.799Z,100542.03
2022-08-05T08:47:47.285Z,100535.72
2022-08-05T08:50:05.964Z,100535.72
2022-08-05T08:52:37.573Z,100531.34
2022-08-05T08:55:00.955Z,100539.13
2022-08-05T08:57:24.005Z,100538.75
2022-08-05T09:00:05.933Z,100531.31
2022-08-05T09:02:28.937Z,100539.72
2022-08-05T09:05:16.936Z,100529.44
2022-08-05T09:07:39.788Z,100525.56
2022-08-05T09:10:19.641Z,100529.25
2022-08-05T09:12:43.494Z,100526.16
2022-08-05T09:15:14.004Z,100529.91
2022-08-05T09:17:40.478Z,100531.59
2022-08-05T09:20:06.701Z,100523.94
2022-08-05T09:22:33.165Z,100531.91
2022-08-05T09:24:59.727Z,100527.44
2022-08-05T09:28:04.890Z,100522.38
2022-08-05T09:30:16.472Z,100526.41
2022-08-05T09:32:46.681Z,100523.50
2022-08-05T09:35:26.418Z,100511.69
2022-08-05T09:38:16.748Z,100527.81
2022-08-05T09:40:34.580Z,100514.88
2022-08-05T09:42:57.877Z,100522.66
2022-08-05T09:46:07.887Z,100528.28
2022-08-05T09:48:18.864Z,100526.28
2022-08-05T09:50:49.473Z,100531.34
2022-08-05T09:53:23.069Z,100533.81
2022-08-05T09:55:57.088Z,100536.81
2022-08-05T09:58:22.056Z,100535.13
2022-08-05T10:00:56.880Z,100525.78
2022-08-05T10:03:20.362Z,100545.81
2022-08-05T10:05:43.424Z,100551.41
2022-08-05T10:08:34.840Z,100558.13
2022-08-05T10:10:54.615Z,100548.69
2022-08-05T10:13:27.369Z,100543.94
2022-08-05T10:16:07.230Z,100554.09
2022-08-05T10:18:32.169Z,100558.69
2022-08-05T10:20:57.015Z,100547.16
2022-08-05T10:23:56.174Z,100548.41
2022-08-05T10:26:07.152Z,100550.81
2022-08-05T10:28:30.792Z,100547.63
2022-08-05T10:32:49.269Z,100544.72
2022-08-05T10:33:37.150Z,100548.94
2022-08-05T10:36:04.670Z,100537.91
2022-08-05T10:38:29.530Z,100547.25
2022-08-05T10:40:59.052Z,100549.84
2022-08-05T10:43:30.878Z,100549.50
2022-08-05T10:46:06.686Z,100545.75
2022-08-05T10:48:36.092Z,100540.50
2022-08-05T10:51:22.009Z,100539.47
2022-08-05T10:53:53.439Z,100542.00
2022-08-05T10:56:25.477Z,100538.28
2022-08-05T10:58:50.782Z,100535.38
2022-08-05T11:01:15.018Z,100538.44
2022-08-05T11:03:38.318Z,100538.44
2022-08-05T11:06:06.084Z,100547.81
2022-08-05T11:08:37.349Z,100539.00
2022-08-05T11:11:41.999Z,100533.75
2022-08-05T11:14:10.470Z,100543.75
2022-08-05T11:16:56.218Z,100539.56
2022-08-05T11:20:10.556Z,100530.63
2022-08-05T11:22:25.375Z,100524.50
2022-08-05T11:25:16.468Z,100525.13
2022-08-05T11:27:51.154Z,100523.09
2022-08-05T11:30:16.381Z,100513.78
2022-08-05T11:32:39.350Z,100516.84
2022-08-05T11:35:02.497Z,100514.97
2022-08-05T11:38:29.935Z,100508.03
2022-08-05T11:40:46.187Z,100502.44
2022-08-05T11:43:09.265Z,100510.22
2022-08-05T11:46:15.246Z,100502.72
2022-08-05T11:48:17.413Z,100502.94
2022-08-05T11:50:41.950Z,100506.66
2022-08-05T11:53:06.427Z,100509.19
2022-08-05T11:55:36.493Z,100510.59
2022-08-05T11:58:10.616Z,100507.88
2022-08-05T12:00:38.593Z,100510.59
2022-08-05T12:03:16.136Z,100516.16
2022-08-05T12:05:51.395Z,100516.00
2022-08-05T12:08:14.829Z,100504.31
2022-08-05T12:10:45.505Z,100515.34
2022-08-05T12:13:15.684Z,100502.13
2022-08-05T12:15:49.612Z,100511.94
2022-08-05T12:18:14.213Z,100503.44
2022-08-05T12:20:38.880Z,100500.59
2022-08-05T12:23:11.267Z,100505.63
2022-08-05T12:25:49.527Z,100508.16
2022-08-05T12:28:15.724Z,100506.94
2022-08-05T12:30:38.997Z,100511.91
2022-08-05T12:33:27.399Z,100508.34
2022-08-05T12:35:53.544Z,100483.47
2022-08-05T12:38:16.626Z,100501.41
2022-08-05T12:40:45.354Z,100493.66
2022-08-05T12:43:08.442Z,100491.78
2022-08-05T12:45:42.640Z,100492.63
2022-08-05T12:48:32.311Z,100495.53
2022-08-05T12:52:11.074Z,100501.78
2022-08-05T12:53:59.222Z,100495.88
2022-08-05T12:56:34.285Z,100491.31
2022-08-05T12:59:13.976Z,100497.19
2022-08-05T13:01:59.948Z,100486.72
2022-08-05T13:04:29.029Z,100492.97
2022-08-05T13:06:52.222Z,100489.06
2022-08-05T13:09:28.654Z,100487.19
2022-08-05T13:12:02.600Z,100482.81
2022-08-05T13:14:36.819Z,100480.78
2022-08-05T13:16:59.935Z,100482.09
2022-08-05T13:19:26.274Z,100478.69
2022-08-05T13:21:52.540Z,100475.81
2022-08-05T13:24:36.460Z,100483.47
2022-08-05T13:27:02.924Z,100475.50
2022-08-05T13:29:37.801Z,100478.41
2022-08-05T13:32:04.084Z,100482.81
2022-08-05T13:34:28.246Z,100487.56
2022-08-05T13:36:52.709Z,100475.22
2022-08-05T13:40:13.682Z,100476.72
2022-08-05T13:41:58.801Z,100470.47
2022-08-05T13:44:22.240Z,100470.94
2022-08-05T13:47:08.551Z,100476.34
2022-08-05T13:49:30.337Z,100470.75
2022-08-05T13:52:01.105Z,100466.38
2022-08-05T13:54:26.418Z,100468.06
2022-08-05T13:56:51.214Z,100464.50
2022-08-05T13:59:19.970Z,100465.97
2022-08-05T14:01:56.261Z,100462.28
2022-08-05T14:04:37.321Z,100469.72
2022-08-05T14:07:12.226Z,100463.47
2022-08-05T14:09:46.515Z,100458.88
2022-08-05T14:12:17.750Z,100457.69
2022-08-05T14:14:53.143Z,100459.38
2022-08-05T14:17:16.847Z,100453.94
2022-08-05T14:19:54.192Z,100450.41
2022-08-05T14:22:21.549Z,100444.13
2022-08-05T14:24:44.966Z,100445.81
2022-08-05T14:27:18.601Z,100448.34
2022-08-05T14:29:41.873Z,100449.19
2022-08-05T14:32:14.963Z,100447.69
2022-08-05T14:34:40.361Z,100437.69
2022-08-05T14:37:03.405Z,100439.38
2022-08-05T14:39:28.587Z,100431.06
2022-08-05T14:42:15.896Z,100441.91
2022-08-05T14:44:35.395Z,100433.97
2022-08-05T14:46:59.194Z,100433.09
2022-08-05T14:49:22.474Z,100444.41
2022-08-05T14:51:45.563Z,100435.16
2022-08-05T14:54:28.254Z,100440.13
2022-08-05T14:56:54.730Z,100433.00
2022-08-05T14:59:18.387Z,100437.56
2022-08-05T15:01:47.963Z,100435.06
2022-08-05T15:04:12.507Z,100438.59
2022-08-05T15:06:35.615Z,100429.63
2022-08-05T15:09:03.629Z,100428.97
2022-08-05T15:11:51.920Z,100424.22
2022-08-05T15:14:11.585Z,100426.72
2022-08-05T15:16:54.562Z,100427.56
2022-08-05T15:19:23.758Z,100425.88
2022-08-05T15:21:47.012Z,100420.94
2022-08-05T15:24:10.426Z,100422.16
2022-08-05T15:26:34.119Z,100425.72
2022-08-05T15:28:57.145Z,100426.72
2022-08-05T15:31:22.753Z,100434.03
2022-08-05T15:34:18.386Z,100433.00
2022-08-05T15:36:40.691Z,100427.56
2022-08-05T15:40:58.661Z,100421.78
2022-08-05T15:41:57.549Z,100419.44
2022-08-05T15:44:22.387Z,100421.16
2022-08-05T15:46:46.944Z,100419.63
2022-08-05T15:49:26.351Z,100422.16
2022-08-05T15:52:04.492Z,100424.03
2022-08-05T15:54:39.611Z,100425.72
2022-08-05T15:57:02.689Z,100422.16
2022-08-05T15:59:25.814Z,100431.97
2022-08-05T16:01:53.848Z,100433.19
2022-08-05T16:04:18.155Z,100431.69
2022-08-05T16:06:41.435Z,100431.88
2022-08-05T16:09:04.505Z,100425.41
2022-08-05T16:11:42.414Z,100424.59
2022-08-05T16:14:06.632Z,100425.63
2022-08-05T16:16:29.661Z,100419.81
2022-08-05T16:18:54.159Z,100426.25
2022-08-05T16:21:17.587Z,100420.19
2022-08-05T16:23:53.776Z,100425.63
2022-08-05T16:26:18.071Z,100429.16
2022-08-05T16:28:41.261Z,100425.78
2022-08-05T16:31:04.515Z,100420.72
2022-08-05T16:33:28.646Z,100425.97
2022-08-05T16:36:06.584Z,100423.28
2022-08-05T16:38:30.907Z,100428.03
2022-08-05T16:40:59.621Z,100430.53
2022-08-05T16:43:24.052Z,100430.53
2022-08-05T16:46:07.275Z,100425.97
2022-08-05T16:48:33.907Z,100430.38
2022-08-05T16:50:59.269Z,100435.41
2022-08-05T16:53:32.158Z,100434.75
2022-08-05T16:56:07.806Z,100433.06
2022-08-05T16:58:30.829Z,100436.81
2022-08-05T17:00:54.048Z,100437.00
2022-08-05T17:03:20.117Z,100437.00
2022-08-05T17:05:44.094Z,100431.75
2022-08-05T17:08:14.772Z,100429.06
2022-08-05T17:10:59.229Z,100435.13
2022-08-05T17:13:37.463Z,100444.09
2022-08-05T17:16:28.040Z,100446.16
2022-08-05T17:18:47.766Z,100442.59
2022-08-05T17:21:11.594Z,100441.56
2022-08-05T17:24:03.281Z,100439.06
2022-08-05T17:26:23.255Z,100446.16
2022-08-05T17:28:47.287Z,100444.09
2022-08-05T17:31:24.735Z,100446.16
2022-08-05T17:33:53.771Z,100437.66
2022-08-05T17:36:32.391Z,100443.25
2022-08-05T17:38:58.115Z,100437.81
2022-08-05T17:42:17.616Z,100437.19
2022-08-05T17:44:06.759Z,100432.28
2022-08-05T17:46:34.213Z,100439.06
2022-08-05T17:48:58.030Z,100439.91
2022-08-05T17:51:21.457Z,100437.19
2022-08-05T17:53:45.949Z,100451.72
2022-08-05T17:56:18.026Z,100447.34
2022-08-05T17:58:42.399Z,100454.44
2022-08-05T18:01:08.053Z,100449.03
2022-08-05T18:03:56.033Z,100451.09
2022-08-05T18:06:16.918Z,100451.72
2022-08-05T18:08:44.196Z,100443.59
2022-08-05T18:11:08.150Z,100454.09
2022-08-05T18:13:36.829Z,100462.41
2022-08-05T18:16:09.639Z,100460.53
2022-08-05T18:18:39.672Z,100468.47
2022-08-05T18:21:03.141Z,100487.53
2022-08-05T18:23:26.165Z,100472.22
2022-08-05T18:25:57.553Z,100474.28
2022-08-05T18:28:23.039Z,100478.88
2022-08-05T18:30:52.458Z,100479.19
2022-08-05T18:33:16.857Z,100481.66
2022-08-05T18:36:00.067Z,100478.75
2022-08-05T18:38:27.249Z,100480.34
2022-08-05T18:41:56.291Z,100483.38
2022-08-05T18:43:37.970Z,100493.00
2022-08-05T18:46:07.040Z,100482.25
2022-08-05T18:48:34.360Z,100483.47
2022-08-05T18:52:03.016Z,100477.88
2022-08-05T18:53:58.132Z,100482.22
2022-08-05T18:56:21.811Z,100484.44
2022-08-05T18:58:48.292Z,100488.25
2022-08-05T19:01:18.315Z,100490.50
2022-08-05T19:03:55.359Z,100479.94
2022-08-05T19:06:21.922Z,100489.03
2022-08-05T19:08:57.080Z,100479.06
2022-08-05T19:11:27.836Z,100482.97
2022-08-05T19:14:01.813Z,100475.50
2022-08-05T19:16:36.924Z,100470.44
2022-08-05T19:19:11.382Z,100475.25
2022-08-05T19:21:36.223Z,100466.75
2022-08-05T19:24:05.951Z,100471.34
2022-08-05T19:26:31.944Z,100475.69
2022-08-05T19:28:56.566Z,100469.72
2022-08-05T19:31:21.544Z,100476.66
2022-08-05T19:33:48.313Z,100461.28
2022-08-05T19:36:20.718Z,100462.09
2022-08-05T19:38:44.009Z,100466.19
2022-08-05T19:41:08.950Z,100464.38
2022-08-05T19:44:05.995Z,100462.88
2022-08-05T19:46:16.702Z,100457.63
2022-08-05T19:48:52.983Z,100463.72
2022-08-05T19:51:21.995Z,100460.72
2022-08-05T19:54:04.549Z,100460.34
2022-08-05T19:56:32.644Z,100463.06
2022-08-05T19:58:57.810Z,100459.19
2022-08-05T20:01:40.894Z,100455.63
2022-08-05T20:04:06.668Z,100449.38
2022-08-05T20:06:37.544Z,100449.56
2022-08-05T20:09:13.876Z,100450.41
2022-08-05T20:11:37.718Z,100445.84
2022-08-05T20:14:12.794Z,100449.28
2022-08-05T20:16:37.891Z,100431.97
2022-08-05T20:19:00.883Z,100443.47
2022-08-05T20:21:25.550Z,100437.38
2022-08-05T20:23:51.014Z,100437.03
2022-08-05T20:26:17.990Z,100437.94
2022-08-05T20:28:41.048Z,100438.28
2022-08-05T20:31:04.554Z,100435.47
2022-08-05T20:33:27.884Z,100427.03
2022-08-05T20:35:55.546Z,100432.94
2022-08-05T20:38:22.869Z,100429.22
2022-08-05T20:40:50.333Z,100433.47
2022-08-05T20:43:15.091Z,100435.69
2022-08-05T20:45:56.322Z,100432.16
2022-08-05T20:48:19.822Z,100422.34
2022-08-05T20:50:45.224Z,100424.03
2022-08-05T20:53:16.263Z,100422.31
2022-08-05T20:55:56.747Z,100419.59
2022-08-05T20:58:33.426Z,100415.84
2022-08-05T21:00:57.122Z,100417.06
2022-08-05T21:03:20.514Z,100412.72
2022-08-05T21:05:53.465Z,100414.88
2022-08-05T21:08:17.956Z,100414.19
2022-08-05T21:10:48.984Z,100414.53
2022-08-05T21:13:16.050Z,100416.75
2022-08-05T21:15:50.969Z,100411.22
2022-08-05T21:18:14.443Z,100413.22
2022-08-05T21:20:37.493Z,100410.59
2022-08-05T21:23:03.162Z,100407.00
2022-08-05T21:25:26.258Z,100412.13
2022-08-05T21:27:57.209Z,100407.78
2022-08-05T21:30:20.455Z,100399.41
2022-08-05T21:32:48.295Z,100402.78
2022-08-05T21:35:18.350Z,100402.78
2022-08-05T21:37:53.651Z,100403.44
2022-08-05T21:40:16.778Z,100393.16
2022-08-05T21:42:44.922Z,100395.16
2022-08-05T21:45:10.900Z,100393.47
2022-08-05T21:47:56.649Z,100394.66
2022-08-05T21:50:18.507Z,100400.78
2022-08-05T21:52:47.100Z,100381.47
2022-08-05T21:55:10.805Z,100390.94
2022-08-05T21:57:42.746Z,100391.25
2022-08-05T22:00:11.328Z,100389.25
2022-08-05T22:02:37.593Z,100388.59
2022-08-05T22:05:00.693Z,100386.88
2022-08-05T22:07:39.408Z,100393.81
2022-08-05T22:10:09.208Z,100377.09
2022-08-05T22:12:34.576Z,100382.19
2022-08-05T22:15:03.291Z,100375.22
2022-08-05T22:17:26.513Z,100380.84
2022-08-05T22:20:01.495Z,100382.34
2022-08-05T22:22:29.663Z,100377.13
2022-08-05T22:25:21.873Z,100376.75
2022-08-05T22:28:09.335Z,100381.47
2022-08-05T22:30:35.705Z,100372.38
2022-08-05T22:32:59.195Z,100372.44
2022-08-05T22:35:22.368Z,100375.28
2022-08-05T22:37:59.025Z,100369.88
2022-08-05T22:40:22.697Z,100368.63
2022-08-05T22:42:53.199Z,100366.09
2022-08-05T22:45:21.246Z,100362.19
2022-08-05T22:47:49.690Z,100363.56
2022-08-05T22:50:23.531Z,100368.84
2022-08-05T22:52:52.385Z,100368.69
2022-08-05T22:55:19.092Z,100361.75
2022-08-05T22:57:44.445Z,100363.13
2022-08-05T23:00:09.393Z,100361.94
2022-08-05T23:02:33.181Z,100358.91
2022-08-05T23:04:56.646Z,100354.69
2022-08-05T23:07:19.754Z,100354.38
2022-08-05T23:09:53.482Z,100355.88
2022-08-05T23:12:24.834Z,100350.97
2022-08-05T23:14:48.057Z,100353.81
2022-08-05T23:17:34.368Z,100346.56
2022-08-05T23:20:00.530Z,100347.94
2022-08-05T23:22:27.565Z,100345.25
2022-08-05T23:24:52.179Z,100340.72
2022-08-05T23:27:15.534Z,100339.00
2022-08-05T23:29:42.709Z,100340.72
2022-08-05T23:32:09.257Z,100337.66
2022-08-05T23:34:33.774Z,100335.81
2022-08-05T23:36:56.834Z,100338.13
2022-08-05T23:39:23.676Z,100331.41
2022-08-05T23:42:08.685Z,100331.53
2022-08-05T23:44:37.824Z,100336.59
2022-08-05T23:47:15.257Z,100328.16
2022-08-05T23:49:38.836Z,100326.09
2022-08-05T23:52:19.847Z,100327.47
2022-08-05T23:54:46.003Z,100317.84
2022-08-05T23:57:11.893Z,100321.28
2022-08-05T23:59:37.754Z,100321.28
